sensor_id;sensor_type;location;lat;lon;timestamp;P1;durP1;ratioP1;P2;durP2;ratioP2
56427;SDS011;42331;53.578;9.760;2024-03-08T00:01:20;18.75;;;9.48;;
56427;SDS011;42331;53.578;9.760;2024-03-08T00:03:51;17.83;;;9.70;;
56427;SDS011;42331;53.578;9.760;2024-03-08T00:06:22;24.00;;;10.10;;
56427;SDS011;42331;53.578;9.760;2024-03-08T00:08:54;19.25;;;9.90;;
56427;SDS011;42331;53.578;9.760;2024-03-08T00:11:26;22.90;;;10.25;;
56427;SDS011;42331;53.578;9.760;2024-03-08T00:13:57;20.00;;;9.90;;
56427;SDS011;42331;53.578;9.760;2024-03-08T00:16:28;21.13;;;9.52;;
56427;SDS011;42331;53.578;9.760;2024-03-08T00:18:59;22.00;;;10.70;;
56427;SDS011;42331;53.578;9.760;2024-03-08T00:21:33;20.27;;;9.77;;
56427;SDS011;42331;53.578;9.760;2024-03-08T00:24:06;18.95;;;9.27;;
56427;SDS011;42331;53.578;9.760;2024-03-08T00:26:37;19.37;;;9.80;;
56427;SDS011;42331;53.578;9.760;2024-03-08T00:29:08;20.07;;;10.17;;
56427;SDS011;42331;53.578;9.760;2024-03-08T00:31:39;23.70;;;9.87;;
56427;SDS011;42331;53.578;9.760;2024-03-08T00:34:10;19.60;;;10.13;;
56427;SDS011;42331;53.578;9.760;2024-03-08T00:36:41;24.50;;;10.48;;
56427;SDS011;42331;53.578;9.760;2024-03-08T00:39:14;22.58;;;9.85;;
56427;SDS011;42331;53.578;9.760;2024-03-08T00:41:45;20.00;;;9.20;;
56427;SDS011;42331;53.578;9.760;2024-03-08T00:44:16;22.20;;;9.98;;
56427;SDS011;42331;53.578;9.760;2024-03-08T00:46:47;27.53;;;10.43;;
56427;SDS011;42331;53.578;9.760;2024-03-08T00:49:18;22.00;;;10.80;;
56427;SDS011;42331;53.578;9.760;2024-03-08T00:51:50;24.25;;;11.13;;
56427;SDS011;42331;53.578;9.760;2024-03-08T00:54:21;15.70;;;7.57;;
56427;SDS011;42331;53.578;9.760;2024-03-08T00:56:52;22.15;;;10.40;;
56427;SDS011;42331;53.578;9.760;2024-03-08T00:59:23;27.60;;;10.90;;
56427;SDS011;42331;53.578;9.760;2024-03-08T01:01:54;23.00;;;11.40;;
56427;SDS011;42331;53.578;9.760;2024-03-08T01:04:26;23.45;;;10.70;;
56427;SDS011;42331;53.578;9.760;2024-03-08T01:07:01;21.80;;;10.65;;
56427;SDS011;42331;53.578;9.760;2024-03-08T01:09:32;21.13;;;10.33;;
56427;SDS011;42331;53.578;9.760;2024-03-08T01:12:04;16.20;;;7.80;;
56427;SDS011;42331;53.578;9.760;2024-03-08T01:14:37;26.73;;;10.98;;
56427;SDS011;42331;53.578;9.760;2024-03-08T01:17:08;22.92;;;10.32;;
56427;SDS011;42331;53.578;9.760;2024-03-08T01:19:39;22.27;;;10.60;;
56427;SDS011;42331;53.578;9.760;2024-03-08T01:22:10;22.50;;;10.97;;
56427;SDS011;42331;53.578;9.760;2024-03-08T01:24:41;26.47;;;12.23;;
56427;SDS011;42331;53.578;9.760;2024-03-08T01:27:13;21.90;;;11.33;;
56427;SDS011;42331;53.578;9.760;2024-03-08T01:29:44;23.65;;;10.98;;
56427;SDS011;42331;53.578;9.760;2024-03-08T01:32:15;24.17;;;11.47;;
56427;SDS011;42331;53.578;9.760;2024-03-08T01:34:46;23.05;;;10.48;;
56427;SDS011;42331;53.578;9.760;2024-03-08T01:37:17;22.73;;;10.98;;
56427;SDS011;42331;53.578;9.760;2024-03-08T01:39:48;24.17;;;11.50;;
56427;SDS011;42331;53.578;9.760;2024-03-08T01:42:19;22.70;;;12.60;;
56427;SDS011;42331;53.578;9.760;2024-03-08T01:44:52;20.15;;;10.82;;
56427;SDS011;42331;53.578;9.760;2024-03-08T01:47:23;23.58;;;11.00;;
56427;SDS011;42331;53.578;9.760;2024-03-08T01:49:54;26.83;;;11.23;;
56427;SDS011;42331;53.578;9.760;2024-03-08T01:52:25;25.58;;;12.32;;
56427;SDS011;42331;53.578;9.760;2024-03-08T01:54:57;25.02;;;11.95;;
56427;SDS011;42331;53.578;9.760;2024-03-08T01:57:30;25.35;;;11.63;;
56427;SDS011;42331;53.578;9.760;2024-03-08T02:00:03;23.80;;;11.68;;
56427;SDS011;42331;53.578;9.760;2024-03-08T02:02:35;28.10;;;12.85;;
56427;SDS011;42331;53.578;9.760;2024-03-08T02:07:38;23.17;;;10.85;;
56427;SDS011;42331;53.578;9.760;2024-03-08T02:10:13;26.25;;;12.18;;
56427;SDS011;42331;53.578;9.760;2024-03-08T02:12:46;24.73;;;11.10;;
56427;SDS011;42331;53.578;9.760;2024-03-08T02:15:17;24.70;;;11.65;;
56427;SDS011;42331;53.578;9.760;2024-03-08T02:20:20;24.65;;;11.45;;
56427;SDS011;42331;53.578;9.760;2024-03-08T02:22:51;25.83;;;11.70;;
56427;SDS011;42331;53.578;9.760;2024-03-08T02:25:22;29.60;;;12.30;;
56427;SDS011;42331;53.578;9.760;2024-03-08T02:27:53;27.52;;;12.13;;
56427;SDS011;42331;53.578;9.760;2024-03-08T02:30:24;22.90;;;11.45;;
56427;SDS011;42331;53.578;9.760;2024-03-08T02:32:59;27.70;;;12.57;;
56427;SDS011;42331;53.578;9.760;2024-03-08T02:35:31;26.93;;;12.50;;
56427;SDS011;42331;53.578;9.760;2024-03-08T02:38:03;27.67;;;12.18;;
56427;SDS011;42331;53.578;9.760;2024-03-08T02:40:34;26.52;;;12.13;;
56427;SDS011;42331;53.578;9.760;2024-03-08T02:43:05;26.77;;;11.43;;
56427;SDS011;42331;53.578;9.760;2024-03-08T02:45:36;24.77;;;12.25;;
56427;SDS011;42331;53.578;9.760;2024-03-08T02:48:08;27.35;;;12.88;;
56427;SDS011;42331;53.578;9.760;2024-03-08T02:50:39;21.42;;;9.68;;
56427;SDS011;42331;53.578;9.760;2024-03-08T02:53:12;28.73;;;13.05;;
56427;SDS011;42331;53.578;9.760;2024-03-08T02:55:44;23.38;;;11.57;;
56427;SDS011;42331;53.578;9.760;2024-03-08T02:58:15;24.85;;;12.30;;
56427;SDS011;42331;53.578;9.760;2024-03-08T03:00:46;18.47;;;9.33;;
56427;SDS011;42331;53.578;9.760;2024-03-08T03:03:17;30.20;;;13.27;;
56427;SDS011;42331;53.578;9.760;2024-03-08T03:05:48;26.03;;;11.73;;
56427;SDS011;42331;53.578;9.760;2024-03-08T03:08:20;27.05;;;12.77;;
56427;SDS011;42331;53.578;9.760;2024-03-08T03:10:51;31.20;;;14.07;;
56427;SDS011;42331;53.578;9.760;2024-03-08T03:13:22;28.20;;;12.75;;
56427;SDS011;42331;53.578;9.760;2024-03-08T03:15:53;25.77;;;12.30;;
56427;SDS011;42331;53.578;9.760;2024-03-08T03:18:24;30.17;;;13.52;;
56427;SDS011;42331;53.578;9.760;2024-03-08T03:20:57;27.00;;;12.07;;
56427;SDS011;42331;53.578;9.760;2024-03-08T03:23:28;27.23;;;12.57;;
56427;SDS011;42331;53.578;9.760;2024-03-08T03:26:03;26.05;;;12.20;;
56427;SDS011;42331;53.578;9.760;2024-03-08T03:28:37;27.70;;;12.48;;
56427;SDS011;42331;53.578;9.760;2024-03-08T03:31:09;25.42;;;11.35;;
56427;SDS011;42331;53.578;9.760;2024-03-08T03:33:44;29.17;;;12.98;;
56427;SDS011;42331;53.578;9.760;2024-03-08T03:36:15;27.20;;;12.67;;
56427;SDS011;42331;53.578;9.760;2024-03-08T03:38:46;25.95;;;12.80;;
56427;SDS011;42331;53.578;9.760;2024-03-08T03:41:18;29.13;;;13.48;;
56427;SDS011;42331;53.578;9.760;2024-03-08T03:43:49;28.90;;;13.57;;
56427;SDS011;42331;53.578;9.760;2024-03-08T03:46:20;30.30;;;13.65;;
56427;SDS011;42331;53.578;9.760;2024-03-08T03:48:51;21.15;;;10.10;;
56427;SDS011;42331;53.578;9.760;2024-03-08T03:51:22;26.87;;;12.40;;
56427;SDS011;42331;53.578;9.760;2024-03-08T03:53:54;31.33;;;12.52;;
56427;SDS011;42331;53.578;9.760;2024-03-08T03:56:27;29.67;;;12.93;;
56427;SDS011;42331;53.578;9.760;2024-03-08T03:58:58;34.60;;;13.43;;
56427;SDS011;42331;53.578;9.760;2024-03-08T04:01:29;26.57;;;13.07;;
56427;SDS011;42331;53.578;9.760;2024-03-08T04:04:00;22.83;;;10.50;;
56427;SDS011;42331;53.578;9.760;2024-03-08T04:06:31;26.80;;;12.50;;
56427;SDS011;42331;53.578;9.760;2024-03-08T04:09:03;32.85;;;13.50;;
56427;SDS011;42331;53.578;9.760;2024-03-08T04:14:05;30.15;;;12.98;;
56427;SDS011;42331;53.578;9.760;2024-03-08T04:16:38;27.08;;;12.52;;
56427;SDS011;42331;53.578;9.760;2024-03-08T04:19:09;29.87;;;13.47;;
56427;SDS011;42331;53.578;9.760;2024-03-08T04:21:40;29.70;;;13.50;;
56427;SDS011;42331;53.578;9.760;2024-03-08T04:24:12;32.13;;;15.13;;
56427;SDS011;42331;53.578;9.760;2024-03-08T04:26:43;29.00;;;12.40;;
56427;SDS011;42331;53.578;9.760;2024-03-08T04:29:14;30.17;;;13.20;;
56427;SDS011;42331;53.578;9.760;2024-03-08T04:31:46;36.40;;;13.02;;
56427;SDS011;42331;53.578;9.760;2024-03-08T04:34:17;22.03;;;10.43;;
56427;SDS011;42331;53.578;9.760;2024-03-08T04:36:48;32.43;;;13.30;;
56427;SDS011;42331;53.578;9.760;2024-03-08T04:39:19;32.55;;;13.68;;
56427;SDS011;42331;53.578;9.760;2024-03-08T04:41:51;27.33;;;12.80;;
56427;SDS011;42331;53.578;9.760;2024-03-08T04:44:24;32.10;;;14.20;;
56427;SDS011;42331;53.578;9.760;2024-03-08T04:46:55;29.88;;;13.02;;
56427;SDS011;42331;53.578;9.760;2024-03-08T04:49:26;33.85;;;13.50;;
56427;SDS011;42331;53.578;9.760;2024-03-08T04:51:58;35.33;;;14.13;;
56427;SDS011;42331;53.578;9.760;2024-03-08T04:54:32;21.87;;;9.93;;
56427;SDS011;42331;53.578;9.760;2024-03-08T04:57:03;31.48;;;13.55;;
56427;SDS011;42331;53.578;9.760;2024-03-08T04:59:34;30.60;;;13.63;;
56427;SDS011;42331;53.578;9.760;2024-03-08T05:02:06;33.97;;;14.50;;
56427;SDS011;42331;53.578;9.760;2024-03-08T05:04:37;31.15;;;13.98;;
56427;SDS011;42331;53.578;9.760;2024-03-08T05:07:08;28.63;;;13.73;;
56427;SDS011;42331;53.578;9.760;2024-03-08T05:09:39;31.23;;;13.60;;
56427;SDS011;42331;53.578;9.760;2024-03-08T05:12:11;29.63;;;13.38;;
56427;SDS011;42331;53.578;9.760;2024-03-08T05:14:42;28.38;;;13.48;;
56427;SDS011;42331;53.578;9.760;2024-03-08T05:17:13;29.90;;;13.73;;
56427;SDS011;42331;53.578;9.760;2024-03-08T05:19:44;28.35;;;12.90;;
56427;SDS011;42331;53.578;9.760;2024-03-08T05:22:15;34.08;;;13.48;;
56427;SDS011;42331;53.578;9.760;2024-03-08T05:27:18;30.42;;;12.93;;
56427;SDS011;42331;53.578;9.760;2024-03-08T05:29:49;29.10;;;13.35;;
56427;SDS011;42331;53.578;9.760;2024-03-08T05:32:20;30.02;;;13.27;;
56427;SDS011;42331;53.578;9.760;2024-03-08T05:34:51;20.00;;;9.67;;
56427;SDS011;42331;53.578;9.760;2024-03-08T05:37:22;29.03;;;13.33;;
56427;SDS011;42331;53.578;9.760;2024-03-08T05:39:53;29.80;;;13.07;;
56427;SDS011;42331;53.578;9.760;2024-03-08T05:42:25;29.55;;;13.25;;
56427;SDS011;42331;53.578;9.760;2024-03-08T05:44:56;37.65;;;14.25;;
56427;SDS011;42331;53.578;9.760;2024-03-08T05:47:27;30.73;;;13.90;;
56427;SDS011;42331;53.578;9.760;2024-03-08T05:49:58;29.98;;;13.43;;
56427;SDS011;42331;53.578;9.760;2024-03-08T05:52:30;31.25;;;13.73;;
56427;SDS011;42331;53.578;9.760;2024-03-08T05:55:01;29.13;;;13.10;;
56427;SDS011;42331;53.578;9.760;2024-03-08T05:57:32;36.05;;;14.55;;
56427;SDS011;42331;53.578;9.760;2024-03-08T06:00:03;31.85;;;13.93;;
56427;SDS011;42331;53.578;9.760;2024-03-08T06:02:34;30.83;;;13.77;;
56427;SDS011;42331;53.578;9.760;2024-03-08T06:05:10;37.58;;;13.48;;
56427;SDS011;42331;53.578;9.760;2024-03-08T06:07:41;29.85;;;13.77;;
56427;SDS011;42331;53.578;9.760;2024-03-08T06:10:13;24.38;;;9.25;;
56427;SDS011;42331;53.578;9.760;2024-03-08T06:15:53;33.50;;;12.38;;
56427;SDS011;42331;53.578;9.760;2024-03-08T06:18:24;34.90;;;13.57;;
56427;SDS011;42331;53.578;9.760;2024-03-08T06:20:55;36.33;;;13.57;;
56427;SDS011;42331;53.578;9.760;2024-03-08T06:23:26;29.67;;;13.60;;
56427;SDS011;42331;53.578;9.760;2024-03-08T06:25:57;30.17;;;13.00;;
56427;SDS011;42331;53.578;9.760;2024-03-08T06:28:29;32.33;;;14.48;;
56427;SDS011;42331;53.578;9.760;2024-03-08T06:31:00;31.67;;;13.68;;
56427;SDS011;42331;53.578;9.760;2024-03-08T06:33:34;21.85;;;10.68;;
56427;SDS011;42331;53.578;9.760;2024-03-08T06:36:08;34.40;;;13.50;;
56427;SDS011;42331;53.578;9.760;2024-03-08T06:38:41;34.17;;;13.30;;
56427;SDS011;42331;53.578;9.760;2024-03-08T06:41:16;34.25;;;14.07;;
56427;SDS011;42331;53.578;9.760;2024-03-08T06:43:47;35.10;;;14.98;;
56427;SDS011;42331;53.578;9.760;2024-03-08T06:46:21;33.28;;;14.45;;
56427;SDS011;42331;53.578;9.760;2024-03-08T06:48:52;36.27;;;14.27;;
56427;SDS011;42331;53.578;9.760;2024-03-08T06:51:23;36.03;;;14.40;;
56427;SDS011;42331;53.578;9.760;2024-03-08T06:53:54;31.77;;;14.07;;
56427;SDS011;42331;53.578;9.760;2024-03-08T06:56:25;35.37;;;13.37;;
56427;SDS011;42331;53.578;9.760;2024-03-08T06:58:56;30.48;;;13.90;;
56427;SDS011;42331;53.578;9.760;2024-03-08T07:01:27;31.60;;;13.75;;
56427;SDS011;42331;53.578;9.760;2024-03-08T07:04:02;30.67;;;13.02;;
56427;SDS011;42331;53.578;9.760;2024-03-08T07:06:35;36.20;;;14.82;;
56427;SDS011;42331;53.578;9.760;2024-03-08T07:09:07;33.65;;;13.75;;
56427;SDS011;42331;53.578;9.760;2024-03-08T07:11:38;33.85;;;14.07;;
56427;SDS011;42331;53.578;9.760;2024-03-08T07:14:09;34.38;;;14.07;;
56427;SDS011;42331;53.578;9.760;2024-03-08T07:16:40;31.13;;;13.43;;
56427;SDS011;42331;53.578;9.760;2024-03-08T07:19:12;27.38;;;12.20;;
56427;SDS011;42331;53.578;9.760;2024-03-08T07:21:44;34.00;;;14.38;;
56427;SDS011;42331;53.578;9.760;2024-03-08T07:24:15;29.13;;;14.38;;
56427;SDS011;42331;53.578;9.760;2024-03-08T07:27:21;34.15;;;13.45;;
56427;SDS011;42331;53.578;9.760;2024-03-08T07:29:53;28.43;;;13.90;;
56427;SDS011;42331;53.578;9.760;2024-03-08T07:32:27;28.73;;;12.85;;
56427;SDS011;42331;53.578;9.760;2024-03-08T07:35:03;30.23;;;13.82;;
56427;SDS011;42331;53.578;9.760;2024-03-08T07:37:34;29.23;;;13.57;;
56427;SDS011;42331;53.578;9.760;2024-03-08T07:40:05;29.52;;;13.48;;
56427;SDS011;42331;53.578;9.760;2024-03-08T07:42:37;30.50;;;13.38;;
56427;SDS011;42331;53.578;9.760;2024-03-08T07:45:09;32.50;;;14.17;;
56427;SDS011;42331;53.578;9.760;2024-03-08T07:47:40;29.83;;;14.13;;
56427;SDS011;42331;53.578;9.760;2024-03-08T07:50:11;21.93;;;10.67;;
56427;SDS011;42331;53.578;9.760;2024-03-08T07:52:46;30.90;;;13.27;;
56427;SDS011;42331;53.578;9.760;2024-03-08T07:55:17;28.48;;;13.70;;
56427;SDS011;42331;53.578;9.760;2024-03-08T07:57:49;32.20;;;13.55;;
56427;SDS011;42331;53.578;9.760;2024-03-08T08:00:20;32.85;;;13.50;;
56427;SDS011;42331;53.578;9.760;2024-03-08T08:02:51;38.47;;;14.07;;
56427;SDS011;42331;53.578;9.760;2024-03-08T08:05:22;26.27;;;13.03;;
56427;SDS011;42331;53.578;9.760;2024-03-08T08:07:53;27.65;;;13.95;;
56427;SDS011;42331;53.578;9.760;2024-03-08T08:10:25;37.53;;;14.37;;
56427;SDS011;42331;53.578;9.760;2024-03-08T08:12:56;32.10;;;13.85;;
56427;SDS011;42331;53.578;9.760;2024-03-08T08:15:27;23.40;;;10.40;;
56427;SDS011;42331;53.578;9.760;2024-03-08T08:17:59;27.00;;;12.77;;
56427;SDS011;42331;53.578;9.760;2024-03-08T08:20:30;29.83;;;13.73;;
56427;SDS011;42331;53.578;9.760;2024-03-08T08:23:01;32.13;;;13.88;;
56427;SDS011;42331;53.578;9.760;2024-03-08T08:25:33;30.30;;;14.73;;
56427;SDS011;42331;53.578;9.760;2024-03-08T08:28:04;30.57;;;14.43;;
56427;SDS011;42331;53.578;9.760;2024-03-08T08:30:35;28.70;;;14.85;;
56427;SDS011;42331;53.578;9.760;2024-03-08T08:33:06;19.50;;;10.00;;
56427;SDS011;42331;53.578;9.760;2024-03-08T08:35:38;30.27;;;13.57;;
56427;SDS011;42331;53.578;9.760;2024-03-08T08:38:09;21.92;;;10.68;;
56427;SDS011;42331;53.578;9.760;2024-03-08T08:40:41;30.20;;;13.15;;
56427;SDS011;42331;53.578;9.760;2024-03-08T08:43:13;27.67;;;14.07;;
56427;SDS011;42331;53.578;9.760;2024-03-08T08:45:44;25.40;;;13.38;;
56427;SDS011;42331;53.578;9.760;2024-03-08T08:48:17;25.80;;;13.38;;
56427;SDS011;42331;53.578;9.760;2024-03-08T08:50:48;29.40;;;14.30;;
56427;SDS011;42331;53.578;9.760;2024-03-08T08:53:20;25.63;;;13.40;;
56427;SDS011;42331;53.578;9.760;2024-03-08T08:55:52;28.95;;;14.55;;
56427;SDS011;42331;53.578;9.760;2024-03-08T08:58:26;22.90;;;12.45;;
56427;SDS011;42331;53.578;9.760;2024-03-08T09:00:57;24.30;;;13.32;;
56427;SDS011;42331;53.578;9.760;2024-03-08T09:03:29;28.50;;;13.10;;
56427;SDS011;42331;53.578;9.760;2024-03-08T09:06:16;25.52;;;13.27;;
56427;SDS011;42331;53.578;9.760;2024-03-08T09:11:19;27.65;;;13.13;;
56427;SDS011;42331;53.578;9.760;2024-03-08T09:13:50;27.87;;;14.13;;
56427;SDS011;42331;53.578;9.760;2024-03-08T09:16:21;27.87;;;13.33;;
56427;SDS011;42331;53.578;9.760;2024-03-08T09:18:53;28.40;;;14.13;;
56427;SDS011;42331;53.578;9.760;2024-03-08T09:21:24;25.42;;;13.35;;
56427;SDS011;42331;53.578;9.760;2024-03-08T09:23:57;26.65;;;13.38;;
56427;SDS011;42331;53.578;9.760;2024-03-08T09:26:29;27.90;;;13.27;;
56427;SDS011;42331;53.578;9.760;2024-03-08T09:29:03;24.42;;;13.40;;
56427;SDS011;42331;53.578;9.760;2024-03-08T09:31:37;30.75;;;14.73;;
56427;SDS011;42331;53.578;9.760;2024-03-08T09:34:08;27.10;;;12.87;;
56427;SDS011;42331;53.578;9.760;2024-03-08T09:36:39;24.77;;;12.30;;
56427;SDS011;42331;53.578;9.760;2024-03-08T09:39:11;27.60;;;14.00;;
56427;SDS011;42331;53.578;9.760;2024-03-08T09:41:46;27.23;;;13.07;;
56427;SDS011;42331;53.578;9.760;2024-03-08T09:44:20;27.52;;;13.82;;
56427;SDS011;42331;53.578;9.760;2024-03-08T09:46:51;28.23;;;13.60;;
56427;SDS011;42331;53.578;9.760;2024-03-08T09:49:23;24.08;;;12.68;;
56427;SDS011;42331;53.578;9.760;2024-03-08T09:51:55;28.05;;;13.77;;
56427;SDS011;42331;53.578;9.760;2024-03-08T09:54:26;27.20;;;13.20;;
56427;SDS011;42331;53.578;9.760;2024-03-08T09:56:57;27.85;;;13.40;;
56427;SDS011;42331;53.578;9.760;2024-03-08T09:59:29;23.83;;;12.17;;
56427;SDS011;42331;53.578;9.760;2024-03-08T10:02:18;26.48;;;12.45;;
56427;SDS011;42331;53.578;9.760;2024-03-08T10:04:51;22.73;;;12.38;;
56427;SDS011;42331;53.578;9.760;2024-03-08T10:07:23;25.17;;;13.13;;
56427;SDS011;42331;53.578;9.760;2024-03-08T10:09:54;29.47;;;13.30;;
56427;SDS011;42331;53.578;9.760;2024-03-08T10:12:25;23.48;;;12.63;;
56427;SDS011;42331;53.578;9.760;2024-03-08T10:14:58;27.80;;;14.40;;
56427;SDS011;42331;53.578;9.760;2024-03-08T10:17:30;24.65;;;12.27;;
56427;SDS011;42331;53.578;9.760;2024-03-08T10:20:02;24.92;;;12.88;;
56427;SDS011;42331;53.578;9.760;2024-03-08T10:22:45;21.60;;;11.88;;
56427;SDS011;42331;53.578;9.760;2024-03-08T10:25:19;20.55;;;11.27;;
56427;SDS011;42331;53.578;9.760;2024-03-08T10:27:51;22.13;;;11.82;;
56427;SDS011;42331;53.578;9.760;2024-03-08T10:30:22;21.87;;;11.90;;
56427;SDS011;42331;53.578;9.760;2024-03-08T10:35:25;19.75;;;10.63;;
56427;SDS011;42331;53.578;9.760;2024-03-08T10:37:57;23.10;;;10.98;;
56427;SDS011;42331;53.578;9.760;2024-03-08T10:40:33;23.52;;;11.15;;
56427;SDS011;42331;53.578;9.760;2024-03-08T10:43:06;20.02;;;10.48;;
56427;SDS011;42331;53.578;9.760;2024-03-08T10:45:41;20.27;;;11.02;;
56427;SDS011;42331;53.578;9.760;2024-03-08T10:50:48;19.17;;;10.70;;
56427;SDS011;42331;53.578;9.760;2024-03-08T10:53:22;19.52;;;11.15;;
56427;SDS011;42331;53.578;9.760;2024-03-08T10:55:54;21.25;;;11.55;;
56427;SDS011;42331;53.578;9.760;2024-03-08T10:58:27;21.63;;;10.82;;
56427;SDS011;42331;53.578;9.760;2024-03-08T11:00:59;23.48;;;11.40;;
56427;SDS011;42331;53.578;9.760;2024-03-08T11:06:18;19.88;;;10.73;;
56427;SDS011;42331;53.578;9.760;2024-03-08T11:08:53;18.30;;;10.95;;
56427;SDS011;42331;53.578;9.760;2024-03-08T11:11:26;17.80;;;10.02;;
56427;SDS011;42331;53.578;9.760;2024-03-08T11:19:22;16.83;;;9.32;;
56427;SDS011;42331;53.578;9.760;2024-03-08T11:22:03;17.60;;;10.52;;
56427;SDS011;42331;53.578;9.760;2024-03-08T11:24:38;17.27;;;9.80;;
56427;SDS011;42331;53.578;9.760;2024-03-08T11:27:12;19.90;;;9.73;;
56427;SDS011;42331;53.578;9.760;2024-03-08T11:29:43;21.27;;;11.05;;
56427;SDS011;42331;53.578;9.760;2024-03-08T11:32:15;22.57;;;10.17;;
56427;SDS011;42331;53.578;9.760;2024-03-08T11:34:51;20.55;;;10.25;;
56427;SDS011;42331;53.578;9.760;2024-03-08T11:39:54;15.65;;;8.88;;
56427;SDS011;42331;53.578;9.760;2024-03-08T11:42:29;21.25;;;9.98;;
56427;SDS011;42331;53.578;9.760;2024-03-08T11:45:00;18.50;;;10.02;;
56427;SDS011;42331;53.578;9.760;2024-03-08T11:47:34;19.90;;;9.52;;
56427;SDS011;42331;53.578;9.760;2024-03-08T11:50:07;20.70;;;9.70;;
56427;SDS011;42331;53.578;9.760;2024-03-08T11:52:41;19.67;;;10.23;;
56427;SDS011;42331;53.578;9.760;2024-03-08T11:55:14;19.75;;;10.35;;
56427;SDS011;42331;53.578;9.760;2024-03-08T11:57:45;19.30;;;9.67;;
56427;SDS011;42331;53.578;9.760;2024-03-08T12:00:19;15.02;;;7.07;;
56427;SDS011;42331;53.578;9.760;2024-03-08T12:03:03;18.65;;;9.80;;
56427;SDS011;42331;53.578;9.760;2024-03-08T12:05:34;19.67;;;9.15;;
56427;SDS011;42331;53.578;9.760;2024-03-08T12:08:05;14.55;;;6.90;;
56427;SDS011;42331;53.578;9.760;2024-03-08T12:10:43;16.23;;;8.43;;
56427;SDS011;42331;53.578;9.760;2024-03-08T12:13:14;18.27;;;8.97;;
56427;SDS011;42331;53.578;9.760;2024-03-08T12:15:45;16.95;;;8.45;;
56427;SDS011;42331;53.578;9.760;2024-03-08T12:18:16;22.77;;;9.43;;
56427;SDS011;42331;53.578;9.760;2024-03-08T12:20:47;20.30;;;9.73;;
56427;SDS011;42331;53.578;9.760;2024-03-08T12:23:20;17.98;;;8.80;;
56427;SDS011;42331;53.578;9.760;2024-03-08T12:25:51;16.03;;;7.60;;
56427;SDS011;42331;53.578;9.760;2024-03-08T12:28:22;21.13;;;9.27;;
56427;SDS011;42331;53.578;9.760;2024-03-08T12:30:53;19.23;;;9.00;;
56427;SDS011;42331;53.578;9.760;2024-03-08T12:33:27;19.77;;;9.60;;
56427;SDS011;42331;53.578;9.760;2024-03-08T12:35:59;20.63;;;9.60;;
56427;SDS011;42331;53.578;9.760;2024-03-08T12:38:30;15.18;;;7.03;;
56427;SDS011;42331;53.578;9.760;2024-03-08T12:41:02;16.90;;;8.35;;
56427;SDS011;42331;53.578;9.760;2024-03-08T12:43:35;15.73;;;7.93;;
56427;SDS011;42331;53.578;9.760;2024-03-08T12:46:06;21.00;;;8.80;;
56427;SDS011;42331;53.578;9.760;2024-03-08T12:48:38;16.65;;;9.20;;
56427;SDS011;42331;53.578;9.760;2024-03-08T12:51:10;17.40;;;9.57;;
56427;SDS011;42331;53.578;9.760;2024-03-08T12:53:42;17.45;;;9.35;;
56427;SDS011;42331;53.578;9.760;2024-03-08T12:56:20;17.05;;;9.88;;
56427;SDS011;42331;53.578;9.760;2024-03-08T12:59:01;20.15;;;9.85;;
56427;SDS011;42331;53.578;9.760;2024-03-08T13:01:33;16.85;;;9.70;;
56427;SDS011;42331;53.578;9.760;2024-03-08T13:04:04;18.92;;;9.45;;
56427;SDS011;42331;53.578;9.760;2024-03-08T13:06:41;17.20;;;9.00;;
56427;SDS011;42331;53.578;9.760;2024-03-08T13:09:12;21.23;;;9.52;;
56427;SDS011;42331;53.578;9.760;2024-03-08T13:11:44;22.40;;;9.70;;
56427;SDS011;42331;53.578;9.760;2024-03-08T13:14:16;15.65;;;7.30;;
56427;SDS011;42331;53.578;9.760;2024-03-08T13:16:47;17.43;;;8.63;;
56427;SDS011;42331;53.578;9.760;2024-03-08T13:19:18;16.63;;;8.68;;
56427;SDS011;42331;53.578;9.760;2024-03-08T13:21:52;20.45;;;10.00;;
56427;SDS011;42331;53.578;9.760;2024-03-08T13:24:23;18.17;;;8.80;;
56427;SDS011;42331;53.578;9.760;2024-03-08T13:26:54;17.83;;;9.13;;
56427;SDS011;42331;53.578;9.760;2024-03-08T13:29:25;20.17;;;9.73;;
56427;SDS011;42331;53.578;9.760;2024-03-08T13:31:57;19.43;;;9.47;;
56427;SDS011;42331;53.578;9.760;2024-03-08T13:34:31;16.88;;;8.48;;
56427;SDS011;42331;53.578;9.760;2024-03-08T13:37:05;17.60;;;8.57;;
56427;SDS011;42331;53.578;9.760;2024-03-08T13:39:36;12.15;;;6.45;;
56427;SDS011;42331;53.578;9.760;2024-03-08T13:42:16;15.00;;;8.18;;
56427;SDS011;42331;53.578;9.760;2024-03-08T13:44:47;17.40;;;8.73;;
56427;SDS011;42331;53.578;9.760;2024-03-08T13:47:18;18.63;;;8.75;;
56427;SDS011;42331;53.578;9.760;2024-03-08T13:49:50;15.00;;;8.50;;
56427;SDS011;42331;53.578;9.760;2024-03-08T13:52:21;18.48;;;8.82;;
56427;SDS011;42331;53.578;9.760;2024-03-08T13:54:55;19.95;;;8.68;;
56427;SDS011;42331;53.578;9.760;2024-03-08T13:57:26;16.83;;;8.55;;
56427;SDS011;42331;53.578;9.760;2024-03-08T13:59:58;17.63;;;8.18;;
56427;SDS011;42331;53.578;9.760;2024-03-08T14:02:29;18.52;;;8.75;;
56427;SDS011;42331;53.578;9.760;2024-03-08T14:05:01;15.80;;;8.30;;
56427;SDS011;42331;53.578;9.760;2024-03-08T14:07:32;14.38;;;7.68;;
56427;SDS011;42331;53.578;9.760;2024-03-08T14:10:04;17.07;;;8.17;;
56427;SDS011;42331;53.578;9.760;2024-03-08T14:12:37;15.15;;;8.93;;
56427;SDS011;42331;53.578;9.760;2024-03-08T14:15:08;10.40;;;5.88;;
56427;SDS011;42331;53.578;9.760;2024-03-08T14:17:41;15.70;;;8.10;;
56427;SDS011;42331;53.578;9.760;2024-03-08T14:20:12;17.77;;;8.03;;
56427;SDS011;42331;53.578;9.760;2024-03-08T14:22:43;20.92;;;8.90;;
56427;SDS011;42331;53.578;9.760;2024-03-08T14:25:14;18.90;;;8.47;;
56427;SDS011;42331;53.578;9.760;2024-03-08T14:27:48;19.25;;;8.60;;
56427;SDS011;42331;53.578;9.760;2024-03-08T14:30:20;19.73;;;9.00;;
56427;SDS011;42331;53.578;9.760;2024-03-08T14:33:05;17.50;;;8.60;;
56427;SDS011;42331;53.578;9.760;2024-03-08T14:35:39;14.13;;;6.60;;
56427;SDS011;42331;53.578;9.760;2024-03-08T14:38:11;16.20;;;8.25;;
56427;SDS011;42331;53.578;9.760;2024-03-08T14:40:43;13.88;;;7.93;;
56427;SDS011;42331;53.578;9.760;2024-03-08T14:43:17;15.93;;;8.15;;
56427;SDS011;42331;53.578;9.760;2024-03-08T14:45:51;15.18;;;8.00;;
56427;SDS011;42331;53.578;9.760;2024-03-08T14:48:22;14.93;;;7.20;;
56427;SDS011;42331;53.578;9.760;2024-03-08T14:50:53;11.33;;;6.03;;
56427;SDS011;42331;53.578;9.760;2024-03-08T14:53:24;16.02;;;8.18;;
56427;SDS011;42331;53.578;9.760;2024-03-08T14:55:57;13.77;;;7.40;;
56427;SDS011;42331;53.578;9.760;2024-03-08T14:58:29;13.25;;;6.90;;
56427;SDS011;42331;53.578;9.760;2024-03-08T15:01:00;14.87;;;7.87;;
56427;SDS011;42331;53.578;9.760;2024-03-08T15:03:31;18.90;;;8.13;;
56427;SDS011;42331;53.578;9.760;2024-03-08T15:06:02;15.83;;;8.43;;
56427;SDS011;42331;53.578;9.760;2024-03-08T15:08:38;16.23;;;8.15;;
56427;SDS011;42331;53.578;9.760;2024-03-08T15:11:12;14.23;;;7.50;;
56427;SDS011;42331;53.578;9.760;2024-03-08T15:14:15;16.70;;;8.10;;
56427;SDS011;42331;53.578;9.760;2024-03-08T15:16:46;15.00;;;7.95;;
56427;SDS011;42331;53.578;9.760;2024-03-08T15:19:19;16.90;;;7.80;;
56427;SDS011;42331;53.578;9.760;2024-03-08T15:21:50;14.63;;;7.53;;
56427;SDS011;42331;53.578;9.760;2024-03-08T15:24:26;11.65;;;7.05;;
56427;SDS011;42331;53.578;9.760;2024-03-08T15:26:58;14.38;;;7.18;;